sensor_id;sensor_type;location;lat;lon;timestamp;temperature;humidity
57829;DHT22;43657;52.698;6.314;2024-02-04T00:01:29;8.50;99.90
57829;DHT22;43657;52.698;6.314;2024-02-04T00:03:55;8.60;99.90
57829;DHT22;43657;52.698;6.314;2024-02-04T00:06:21;8.60;99.90
57829;DHT22;43657;52.698;6.314;2024-02-04T00:08:46;8.60;99.90
57829;DHT22;43657;52.698;6.314;2024-02-04T00:11:12;8.50;99.90
57829;DHT22;43657;52.698;6.314;2024-02-04T00:13:42;8.50;99.90
57829;DHT22;43657;52.698;6.314;2024-02-04T00:16:11;8.40;99.90
57829;DHT22;43657;52.698;6.314;2024-02-04T00:18:47;8.30;99.90
57829;DHT22;43657;52.698;6.314;2024-02-04T00:21:12;8.30;99.90
57829;DHT22;43657;52.698;6.314;2024-02-04T00:23:38;8.20;99.90
57829;DHT22;43657;52.698;6.314;2024-02-04T00:26:04;8.20;99.90
57829;DHT22;43657;52.698;6.314;2024-02-04T00:28:29;8.10;99.90
57829;DHT22;43657;52.698;6.314;2024-02-04T00:30:55;8.10;99.90
57829;DHT22;43657;52.698;6.314;2024-02-04T00:33:23;8.10;99.90
57829;DHT22;43657;52.698;6.314;2024-02-04T00:35:49;8.00;99.90
57829;DHT22;43657;52.698;6.314;2024-02-04T00:38:16;8.00;99.90
57829;DHT22;43657;52.698;6.314;2024-02-04T00:40:42;8.00;99.90
57829;DHT22;43657;52.698;6.314;2024-02-04T00:43:07;8.00;99.90
57829;DHT22;43657;52.698;6.314;2024-02-04T00:45:33;7.90;99.90
57829;DHT22;43657;52.698;6.314;2024-02-04T00:47:59;7.80;99.90
57829;DHT22;43657;52.698;6.314;2024-02-04T00:50:24;7.70;99.90
57829;DHT22;43657;52.698;6.314;2024-02-04T00:52:50;7.70;99.90
57829;DHT22;43657;52.698;6.314;2024-02-04T00:55:19;7.60;99.90
57829;DHT22;43657;52.698;6.314;2024-02-04T00:57:44;7.50;99.90
57829;DHT22;43657;52.698;6.314;2024-02-04T01:00:10;7.50;99.90
57829;DHT22;43657;52.698;6.314;2024-02-04T01:02:38;7.40;99.90
57829;DHT22;43657;52.698;6.314;2024-02-04T01:05:04;7.30;99.90
57829;DHT22;43657;52.698;6.314;2024-02-04T01:07:30;7.30;99.90
57829;DHT22;43657;52.698;6.314;2024-02-04T01:09:56;7.30;99.90
57829;DHT22;43657;52.698;6.314;2024-02-04T01:12:21;7.30;99.90
57829;DHT22;43657;52.698;6.314;2024-02-04T01:14:47;7.30;99.90
57829;DHT22;43657;52.698;6.314;2024-02-04T01:17:12;7.40;99.90
57829;DHT22;43657;52.698;6.314;2024-02-04T01:19:38;7.40;99.90
57829;DHT22;43657;52.698;6.314;2024-02-04T01:22:04;7.50;99.90
57829;DHT22;43657;52.698;6.314;2024-02-04T01:24:31;7.50;99.90
57829;DHT22;43657;52.698;6.314;2024-02-04T01:26:57;7.60;99.90
57829;DHT22;43657;52.698;6.314;2024-02-04T01:29:23;7.60;99.90
57829;DHT22;43657;52.698;6.314;2024-02-04T01:31:48;7.60;99.90
57829;DHT22;43657;52.698;6.314;2024-02-04T01:34:14;7.70;99.90
57829;DHT22;43657;52.698;6.314;2024-02-04T01:36:39;7.70;99.90
57829;DHT22;43657;52.698;6.314;2024-02-04T01:39:05;7.80;99.90
57829;DHT22;43657;52.698;6.314;2024-02-04T01:41:33;7.70;99.90
57829;DHT22;43657;52.698;6.314;2024-02-04T01:43:59;7.80;99.90
57829;DHT22;43657;52.698;6.314;2024-02-04T01:46:24;7.80;99.90
57829;DHT22;43657;52.698;6.314;2024-02-04T01:48:50;7.90;99.90
57829;DHT22;43657;52.698;6.314;2024-02-04T01:51:17;7.90;99.90
57829;DHT22;43657;52.698;6.314;2024-02-04T01:53:46;7.90;99.90
57829;DHT22;43657;52.698;6.314;2024-02-04T01:56:13;7.90;99.90
57829;DHT22;43657;52.698;6.314;2024-02-04T01:58:39;7.90;99.90
57829;DHT22;43657;52.698;6.314;2024-02-04T02:01:05;7.90;99.90
57829;DHT22;43657;52.698;6.314;2024-02-04T02:03:31;7.90;99.90
57829;DHT22;43657;52.698;6.314;2024-02-04T02:05:58;7.90;99.90
57829;DHT22;43657;52.698;6.314;2024-02-04T02:08:24;7.90;99.90
57829;DHT22;43657;52.698;6.314;2024-02-04T02:10:51;7.90;99.90
57829;DHT22;43657;52.698;6.314;2024-02-04T02:13:27;7.90;99.90
57829;DHT22;43657;52.698;6.314;2024-02-04T02:16:15;7.80;99.90
57829;DHT22;43657;52.698;6.314;2024-02-04T02:18:49;7.70;99.90
57829;DHT22;43657;52.698;6.314;2024-02-04T02:21:26;7.60;99.90
57829;DHT22;43657;52.698;6.314;2024-02-04T02:24:16;7.60;99.90
57829;DHT22;43657;52.698;6.314;2024-02-04T02:26:45;7.50;99.90
57829;DHT22;43657;52.698;6.314;2024-02-04T02:29:10;7.30;99.90
57829;DHT22;43657;52.698;6.314;2024-02-04T02:31:37;7.20;99.90
57829;DHT22;43657;52.698;6.314;2024-02-04T02:34:03;7.20;99.90
57829;DHT22;43657;52.698;6.314;2024-02-04T02:36:33;7.10;99.90
57829;DHT22;43657;52.698;6.314;2024-02-04T02:39:15;7.00;99.90
57829;DHT22;43657;52.698;6.314;2024-02-04T02:41:43;7.00;99.90
57829;DHT22;43657;52.698;6.314;2024-02-04T02:44:09;6.90;99.90
57829;DHT22;43657;52.698;6.314;2024-02-04T02:46:36;6.80;99.90
57829;DHT22;43657;52.698;6.314;2024-02-04T02:49:03;6.80;99.90
57829;DHT22;43657;52.698;6.314;2024-02-04T02:51:28;6.70;99.90
57829;DHT22;43657;52.698;6.314;2024-02-04T02:53:54;6.70;99.90
57829;DHT22;43657;52.698;6.314;2024-02-04T02:56:20;6.60;99.90
57829;DHT22;43657;52.698;6.314;2024-02-04T02:58:46;6.60;99.90
57829;DHT22;43657;52.698;6.314;2024-02-04T03:01:12;6.50;99.90
57829;DHT22;43657;52.698;6.314;2024-02-04T03:03:37;6.50;99.90
57829;DHT22;43657;52.698;6.314;2024-02-04T03:06:03;6.50;99.90
57829;DHT22;43657;52.698;6.314;2024-02-04T03:08:29;6.50;99.90
57829;DHT22;43657;52.698;6.314;2024-02-04T03:10:54;6.40;99.90
57829;DHT22;43657;52.698;6.314;2024-02-04T03:13:20;6.40;99.90
57829;DHT22;43657;52.698;6.314;2024-02-04T03:15:46;6.40;99.90
57829;DHT22;43657;52.698;6.314;2024-02-04T03:18:11;6.40;99.90
57829;DHT22;43657;52.698;6.314;2024-02-04T03:20:37;6.40;99.90
57829;DHT22;43657;52.698;6.314;2024-02-04T03:23:03;6.40;99.90
57829;DHT22;43657;52.698;6.314;2024-02-04T03:25:29;6.30;99.90
57829;DHT22;43657;52.698;6.314;2024-02-04T03:27:55;6.40;99.90
57829;DHT22;43657;52.698;6.314;2024-02-04T03:30:21;6.40;99.90
57829;DHT22;43657;52.698;6.314;2024-02-04T03:32:47;6.30;99.90
57829;DHT22;43657;52.698;6.314;2024-02-04T03:35:13;6.30;99.90
57829;DHT22;43657;52.698;6.314;2024-02-04T03:37:38;6.30;99.90
57829;DHT22;43657;52.698;6.314;2024-02-04T03:40:04;6.30;99.90
57829;DHT22;43657;52.698;6.314;2024-02-04T03:42:30;6.30;99.90
57829;DHT22;43657;52.698;6.314;2024-02-04T03:44:56;6.30;99.90
57829;DHT22;43657;52.698;6.314;2024-02-04T03:47:22;6.30;99.90
57829;DHT22;43657;52.698;6.314;2024-02-04T03:49:47;6.30;99.90
57829;DHT22;43657;52.698;6.314;2024-02-04T03:52:13;6.30;99.90
57829;DHT22;43657;52.698;6.314;2024-02-04T03:54:39;6.30;99.90
57829;DHT22;43657;52.698;6.314;2024-02-04T03:57:04;6.30;99.90
57829;DHT22;43657;52.698;6.314;2024-02-04T03:59:30;6.30;99.90
57829;DHT22;43657;52.698;6.314;2024-02-04T04:01:56;6.30;99.90
57829;DHT22;43657;52.698;6.314;2024-02-04T04:04:23;6.30;99.90
57829;DHT22;43657;52.698;6.314;2024-02-04T04:06:49;6.30;99.90
57829;DHT22;43657;52.698;6.314;2024-02-04T04:09:15;6.30;99.90
57829;DHT22;43657;52.698;6.314;2024-02-04T04:11:40;6.30;99.90
57829;DHT22;43657;52.698;6.314;2024-02-04T04:14:06;6.40;99.90
57829;DHT22;43657;52.698;6.314;2024-02-04T04:16:32;6.30;99.90
57829;DHT22;43657;52.698;6.314;2024-02-04T04:18:57;6.40;99.90
57829;DHT22;43657;52.698;6.314;2024-02-04T04:21:26;6.40;99.90
57829;DHT22;43657;52.698;6.314;2024-02-04T04:23:52;6.40;99.90
57829;DHT22;43657;52.698;6.314;2024-02-04T04:26:18;6.40;99.90
57829;DHT22;43657;52.698;6.314;2024-02-04T04:28:43;6.40;99.90
57829;DHT22;43657;52.698;6.314;2024-02-04T04:31:09;6.40;99.90
57829;DHT22;43657;52.698;6.314;2024-02-04T04:33:38;6.40;99.90
57829;DHT22;43657;52.698;6.314;2024-02-04T04:36:04;6.40;99.90
57829;DHT22;43657;52.698;6.314;2024-02-04T04:38:30;6.40;99.90
57829;DHT22;43657;52.698;6.314;2024-02-04T04:40:56;6.40;99.90
57829;DHT22;43657;52.698;6.314;2024-02-04T04:43:22;6.40;99.90
57829;DHT22;43657;52.698;6.314;2024-02-04T04:45:48;6.50;99.90
57829;DHT22;43657;52.698;6.314;2024-02-04T04:48:13;6.40;99.90
57829;DHT22;43657;52.698;6.314;2024-02-04T04:50:39;6.50;99.90
57829;DHT22;43657;52.698;6.314;2024-02-04T04:53:05;6.60;99.90
57829;DHT22;43657;52.698;6.314;2024-02-04T04:55:30;6.70;99.90
57829;DHT22;43657;52.698;6.314;2024-02-04T04:57:56;6.60;99.90
57829;DHT22;43657;52.698;6.314;2024-02-04T05:00:22;6.60;99.90
57829;DHT22;43657;52.698;6.314;2024-02-04T05:02:48;6.60;99.90
57829;DHT22;43657;52.698;6.314;2024-02-04T05:05:14;6.70;99.90
57829;DHT22;43657;52.698;6.314;2024-02-04T05:07:40;6.70;99.90
57829;DHT22;43657;52.698;6.314;2024-02-04T05:10:06;6.80;99.90
57829;DHT22;43657;52.698;6.314;2024-02-04T05:12:33;6.70;99.90
57829;DHT22;43657;52.698;6.314;2024-02-04T05:14:59;6.80;99.90
57829;DHT22;43657;52.698;6.314;2024-02-04T05:17:26;6.70;99.90
57829;DHT22;43657;52.698;6.314;2024-02-04T05:19:52;6.80;99.90
57829;DHT22;43657;52.698;6.314;2024-02-04T05:22:18;6.80;99.90
57829;DHT22;43657;52.698;6.314;2024-02-04T05:24:43;6.80;99.90
57829;DHT22;43657;52.698;6.314;2024-02-04T05:27:09;6.80;99.90
57829;DHT22;43657;52.698;6.314;2024-02-04T05:29:35;6.80;99.90
57829;DHT22;43657;52.698;6.314;2024-02-04T05:32:01;6.80;99.90
57829;DHT22;43657;52.698;6.314;2024-02-04T05:34:27;6.90;99.90
57829;DHT22;43657;52.698;6.314;2024-02-04T05:36:52;7.00;99.90
57829;DHT22;43657;52.698;6.314;2024-02-04T05:39:18;6.90;99.90
57829;DHT22;43657;52.698;6.314;2024-02-04T05:41:44;6.90;99.90
57829;DHT22;43657;52.698;6.314;2024-02-04T05:44:10;6.90;99.90
57829;DHT22;43657;52.698;6.314;2024-02-04T05:46:36;6.90;99.90
57829;DHT22;43657;52.698;6.314;2024-02-04T05:49:02;6.90;99.90
57829;DHT22;43657;52.698;6.314;2024-02-04T05:51:28;6.90;99.90
57829;DHT22;43657;52.698;6.314;2024-02-04T05:53:54;6.90;99.90
57829;DHT22;43657;52.698;6.314;2024-02-04T05:56:20;7.00;99.90
57829;DHT22;43657;52.698;6.314;2024-02-04T05:58:46;6.90;99.90
57829;DHT22;43657;52.698;6.314;2024-02-04T06:01:12;6.90;99.90
57829;DHT22;43657;52.698;6.314;2024-02-04T06:03:38;7.00;99.90
57829;DHT22;43657;52.698;6.314;2024-02-04T06:06:04;7.00;99.90
57829;DHT22;43657;52.698;6.314;2024-02-04T06:08:30;7.00;99.90
57829;DHT22;43657;52.698;6.314;2024-02-04T06:10:56;7.00;99.90
57829;DHT22;43657;52.698;6.314;2024-02-04T06:13:21;7.00;99.90
57829;DHT22;43657;52.698;6.314;2024-02-04T06:15:47;7.10;99.90
57829;DHT22;43657;52.698;6.314;2024-02-04T06:18:13;7.00;99.90
57829;DHT22;43657;52.698;6.314;2024-02-04T06:20:39;7.00;99.90
57829;DHT22;43657;52.698;6.314;2024-02-04T06:23:05;7.00;99.90
57829;DHT22;43657;52.698;6.314;2024-02-04T06:25:30;7.10;99.90
57829;DHT22;43657;52.698;6.314;2024-02-04T06:27:56;7.00;99.90
57829;DHT22;43657;52.698;6.314;2024-02-04T06:30:22;7.00;99.90
57829;DHT22;43657;52.698;6.314;2024-02-04T06:32:49;7.00;99.90
57829;DHT22;43657;52.698;6.314;2024-02-04T06:35:15;7.00;99.90
57829;DHT22;43657;52.698;6.314;2024-02-04T06:37:41;7.00;99.90
57829;DHT22;43657;52.698;6.314;2024-02-04T06:40:09;7.10;99.90
57829;DHT22;43657;52.698;6.314;2024-02-04T06:42:36;7.00;99.90
57829;DHT22;43657;52.698;6.314;2024-02-04T06:45:01;7.10;99.90
57829;DHT22;43657;52.698;6.314;2024-02-04T06:47:27;7.00;99.90
57829;DHT22;43657;52.698;6.314;2024-02-04T06:49:53;7.10;99.90
57829;DHT22;43657;52.698;6.314;2024-02-04T06:52:19;7.10;99.90
57829;DHT22;43657;52.698;6.314;2024-02-04T06:54:44;7.10;99.90
57829;DHT22;43657;52.698;6.314;2024-02-04T06:57:10;7.10;99.90
57829;DHT22;43657;52.698;6.314;2024-02-04T06:59:36;7.10;99.90
57829;DHT22;43657;52.698;6.314;2024-02-04T07:02:02;7.10;99.90
57829;DHT22;43657;52.698;6.314;2024-02-04T07:04:28;7.10;99.90
57829;DHT22;43657;52.698;6.314;2024-02-04T07:06:53;7.10;99.90
57829;DHT22;43657;52.698;6.314;2024-02-04T07:09:19;7.10;99.90
57829;DHT22;43657;52.698;6.314;2024-02-04T07:11:45;7.10;99.90
57829;DHT22;43657;52.698;6.314;2024-02-04T07:14:11;7.20;99.90
57829;DHT22;43657;52.698;6.314;2024-02-04T07:16:37;7.20;99.90
57829;DHT22;43657;52.698;6.314;2024-02-04T07:19:03;7.10;99.90
57829;DHT22;43657;52.698;6.314;2024-02-04T07:21:29;7.10;99.90
57829;DHT22;43657;52.698;6.314;2024-02-04T07:23:55;7.10;99.90
57829;DHT22;43657;52.698;6.314;2024-02-04T07:26:35;7.20;99.90
57829;DHT22;43657;52.698;6.314;2024-02-04T07:36:15;7.30;99.90
57829;DHT22;43657;52.698;6.314;2024-02-04T07:39:18;7.20;99.90
57829;DHT22;43657;52.698;6.314;2024-02-04T07:50:03;7.30;99.90
57829;DHT22;43657;52.698;6.314;2024-02-04T07:53:19;7.40;99.90
57829;DHT22;43657;52.698;6.314;2024-02-04T07:55:53;7.50;99.90
57829;DHT22;43657;52.698;6.314;2024-02-04T08:05:52;7.50;99.90
57829;DHT22;43657;52.698;6.314;2024-02-04T08:08:21;7.50;99.90
57829;DHT22;43657;52.698;6.314;2024-02-04T08:10:50;7.50;99.90
57829;DHT22;43657;52.698;6.314;2024-02-04T08:13:21;7.60;99.90
57829;DHT22;43657;52.698;6.314;2024-02-04T08:16:25;7.60;99.90
57829;DHT22;43657;52.698;6.314;2024-02-04T08:21:39;7.70;99.90
57829;DHT22;43657;52.698;6.314;2024-02-04T08:24:15;7.80;99.90
57829;DHT22;43657;52.698;6.314;2024-02-04T08:26:46;7.90;99.90
57829;DHT22;43657;52.698;6.314;2024-02-04T08:29:20;8.00;99.90
57829;DHT22;43657;52.698;6.314;2024-02-04T08:31:46;8.00;99.90
57829;DHT22;43657;52.698;6.314;2024-02-04T08:34:14;8.10;99.90
57829;DHT22;43657;52.698;6.314;2024-02-04T08:36:46;8.10;99.90
57829;DHT22;43657;52.698;6.314;2024-02-04T08:39:23;8.20;99.90
57829;DHT22;43657;52.698;6.314;2024-02-04T08:41:57;8.30;99.90
57829;DHT22;43657;52.698;6.314;2024-02-04T08:44:31;8.30;99.90
57829;DHT22;43657;52.698;6.314;2024-02-04T08:47:09;8.20;99.90
57829;DHT22;43657;52.698;6.314;2024-02-04T08:49:45;8.30;99.90
57829;DHT22;43657;52.698;6.314;2024-02-04T08:52:16;8.30;99.90
57829;DHT22;43657;52.698;6.314;2024-02-04T08:54:47;8.30;99.90
57829;DHT22;43657;52.698;6.314;2024-02-04T08:57:15;8.40;99.90
57829;DHT22;43657;52.698;6.314;2024-02-04T09:02:50;8.50;99.90
57829;DHT22;43657;52.698;6.314;2024-02-04T09:05:19;8.50;99.90
57829;DHT22;43657;52.698;6.314;2024-02-04T09:07:52;8.50;99.90
57829;DHT22;43657;52.698;6.314;2024-02-04T09:10:21;8.60;99.90
57829;DHT22;43657;52.698;6.314;2024-02-04T09:12:49;8.60;99.90
57829;DHT22;43657;52.698;6.314;2024-02-04T09:15:19;8.70;99.90
57829;DHT22;43657;52.698;6.314;2024-02-04T09:17:51;8.60;99.90
57829;DHT22;43657;52.698;6.314;2024-02-04T09:20:16;8.60;99.90
57829;DHT22;43657;52.698;6.314;2024-02-04T09:22:42;8.70;99.90
57829;DHT22;43657;52.698;6.314;2024-02-04T09:25:11;8.70;99.90
57829;DHT22;43657;52.698;6.314;2024-02-04T09:27:37;8.80;99.90
57829;DHT22;43657;52.698;6.314;2024-02-04T09:30:08;8.70;99.90
57829;DHT22;43657;52.698;6.314;2024-02-04T09:32:34;8.80;99.90
57829;DHT22;43657;52.698;6.314;2024-02-04T09:35:03;8.90;99.90
57829;DHT22;43657;52.698;6.314;2024-02-04T09:37:29;8.90;99.90
57829;DHT22;43657;52.698;6.314;2024-02-04T09:39:55;8.90;99.90
57829;DHT22;43657;52.698;6.314;2024-02-04T09:42:23;9.00;99.90
57829;DHT22;43657;52.698;6.314;2024-02-04T09:44:52;9.00;99.90
57829;DHT22;43657;52.698;6.314;2024-02-04T09:47:20;9.00;99.90
57829;DHT22;43657;52.698;6.314;2024-02-04T09:49:52;9.00;99.90
57829;DHT22;43657;52.698;6.314;2024-02-04T09:52:35;9.00;99.90
57829;DHT22;43657;52.698;6.314;2024-02-04T09:55:27;9.00;99.90
57829;DHT22;43657;52.698;6.314;2024-02-04T09:57:56;9.10;99.90
57829;DHT22;43657;52.698;6.314;2024-02-04T10:00:29;9.10;99.90
57829;DHT22;43657;52.698;6.314;2024-02-04T10:03:04;9.10;99.90
57829;DHT22;43657;52.698;6.314;2024-02-04T10:05:36;9.10;99.90
57829;DHT22;43657;52.698;6.314;2024-02-04T10:08:05;9.10;99.90
57829;DHT22;43657;52.698;6.314;2024-02-04T10:10:33;9.10;99.90
57829;DHT22;43657;52.698;6.314;2024-02-04T10:13:06;9.10;99.90
57829;DHT22;43657;52.698;6.314;2024-02-04T10:15:40;9.10;99.90
57829;DHT22;43657;52.698;6.314;2024-02-04T10:18:11;9.20;99.90
57829;DHT22;43657;52.698;6.314;2024-02-04T10:20:39;9.20;99.90
57829;DHT22;43657;52.698;6.314;2024-02-04T10:23:16;9.20;99.90
57829;DHT22;43657;52.698;6.314;2024-02-04T10:25:42;9.20;99.90
57829;DHT22;43657;52.698;6.314;2024-02-04T10:28:20;9.20;99.90
57829;DHT22;43657;52.698;6.314;2024-02-04T10:30:46;9.20;99.90
57829;DHT22;43657;52.698;6.314;2024-02-04T10:33:54;9.30;99.90
57829;DHT22;43657;52.698;6.314;2024-02-04T10:36:20;9.20;99.90
57829;DHT22;43657;52.698;6.314;2024-02-04T10:39:14;9.20;99.90
57829;DHT22;43657;52.698;6.314;2024-02-04T10:41:52;9.30;99.90
57829;DHT22;43657;52.698;6.314;2024-02-04T10:44:24;9.20;99.90
57829;DHT22;43657;52.698;6.314;2024-02-04T10:46:54;9.20;99.90
57829;DHT22;43657;52.698;6.314;2024-02-04T10:49:25;9.20;99.90
57829;DHT22;43657;52.698;6.314;2024-02-04T10:51:53;9.20;99.90
57829;DHT22;43657;52.698;6.314;2024-02-04T10:54:22;9.20;99.90
57829;DHT22;43657;52.698;6.314;2024-02-04T10:56:56;9.20;99.90
57829;DHT22;43657;52.698;6.314;2024-02-04T10:59:24;9.30;99.90
57829;DHT22;43657;52.698;6.314;2024-02-04T11:01:56;9.50;99.90
57829;DHT22;43657;52.698;6.314;2024-02-04T11:04:24;9.50;99.90
57829;DHT22;43657;52.698;6.314;2024-02-04T11:06:52;9.60;99.90
57829;DHT22;43657;52.698;6.314;2024-02-04T11:09:19;9.70;99.90
57829;DHT22;43657;52.698;6.314;2024-02-04T11:11:48;9.60;99.90
57829;DHT22;43657;52.698;6.314;2024-02-04T11:14:16;9.70;99.90
57829;DHT22;43657;52.698;6.314;2024-02-04T11:19:40;9.60;99.90
57829;DHT22;43657;52.698;6.314;2024-02-04T11:22:53;9.60;99.90
57829;DHT22;43657;52.698;6.314;2024-02-04T11:25:54;9.50;99.90
57829;DHT22;43657;52.698;6.314;2024-02-04T11:28:21;9.40;99.90
57829;DHT22;43657;52.698;6.314;2024-02-04T11:30:47;9.40;99.90
57829;DHT22;43657;52.698;6.314;2024-02-04T11:33:18;9.40;99.90
57829;DHT22;43657;52.698;6.314;2024-02-04T11:35:45;9.40;99.90
57829;DHT22;43657;52.698;6.314;2024-02-04T11:38:11;9.40;99.90
57829;DHT22;43657;52.698;6.314;2024-02-04T11:40:39;9.50;99.90
57829;DHT22;43657;52.698;6.314;2024-02-04T11:43:12;9.50;99.90
57829;DHT22;43657;52.698;6.314;2024-02-04T11:45:41;9.50;99.90
57829;DHT22;43657;52.698;6.314;2024-02-04T11:48:08;9.50;99.90
57829;DHT22;43657;52.698;6.314;2024-02-04T11:50:35;9.50;99.90
57829;DHT22;43657;52.698;6.314;2024-02-04T11:53:12;9.60;99.90
57829;DHT22;43657;52.698;6.314;2024-02-04T11:55:40;9.60;99.90
57829;DHT22;43657;52.698;6.314;2024-02-04T11:58:06;9.60;99.90
57829;DHT22;43657;52.698;6.314;2024-02-04T12:00:33;9.60;99.90
57829;DHT22;43657;52.698;6.314;2024-02-04T12:03:01;9.70;99.90
57829;DHT22;43657;52.698;6.314;2024-02-04T12:05:28;9.70;99.90
57829;DHT22;43657;52.698;6.314;2024-02-04T12:07:54;9.70;99.90
57829;DHT22;43657;52.698;6.314;2024-02-04T12:10:20;9.70;99.90
57829;DHT22;43657;52.698;6.314;2024-02-04T12:12:47;9.70;99.90
57829;DHT22;43657;52.698;6.314;2024-02-04T12:15:13;9.70;99.90
57829;DHT22;43657;52.698;6.314;2024-02-04T12:17:39;9.70;99.90
57829;DHT22;43657;52.698;6.314;2024-02-04T12:20:05;9.70;99.90
57829;DHT22;43657;52.698;6.314;2024-02-04T12:22:32;9.70;99.90
57829;DHT22;43657;52.698;6.314;2024-02-04T12:24:59;9.70;99.90
57829;DHT22;43657;52.698;6.314;2024-02-04T12:27:26;9.70;99.90
57829;DHT22;43657;52.698;6.314;2024-02-04T12:29:52;9.70;99.90
57829;DHT22;43657;52.698;6.314;2024-02-04T12:32:21;9.70;99.90
57829;DHT22;43657;52.698;6.314;2024-02-04T12:34:57;9.60;99.90
57829;DHT22;43657;52.698;6.314;2024-02-04T12:37:54;9.80;99.90
57829;DHT22;43657;52.698;6.314;2024-02-04T12:40:24;9.80;99.90
57829;DHT22;43657;52.698;6.314;2024-02-04T12:43:11;9.80;99.90
57829;DHT22;43657;52.698;6.314;2024-02-04T12:45:36;9.90;99.90
57829;DHT22;43657;52.698;6.314;2024-02-04T12:48:02;9.90;99.90
57829;DHT22;43657;52.698;6.314;2024-02-04T12:50:28;9.90;99.90
57829;DHT22;43657;52.698;6.314;2024-02-04T12:53:08;9.90;99.90
57829;DHT22;43657;52.698;6.314;2024-02-04T12:55:37;9.90;99.90
57829;DHT22;43657;52.698;6.314;2024-02-04T12:58:10;10.00;99.90
57829;DHT22;43657;52.698;6.314;2024-02-04T13:00:45;10.00;99.90
57829;DHT22;43657;52.698;6.314;2024-02-04T13:03:15;9.90;99.90
57829;DHT22;43657;52.698;6.314;2024-02-04T13:05:41;10.00;99.90
57829;DHT22;43657;52.698;6.314;2024-02-04T13:08:07;10.00;99.90
57829;DHT22;43657;52.698;6.314;2024-02-04T13:10:35;9.90;99.90
57829;DHT22;43657;52.698;6.314;2024-02-04T13:13:08;9.90;99.90
57829;DHT22;43657;52.698;6.314;2024-02-04T13:15:43;9.90;99.90
57829;DHT22;43657;52.698;6.314;2024-02-04T13:18:09;9.90;99.90
57829;DHT22;43657;52.698;6.314;2024-02-04T13:20:40;9.90;99.90
57829;DHT22;43657;52.698;6.314;2024-02-04T13:23:07;9.80;99.90
57829;DHT22;43657;52.698;6.314;2024-02-04T13:25:33;9.90;99.90
57829;DHT22;43657;52.698;6.314;2024-02-04T13:27:59;9.80;99.90
57829;DHT22;43657;52.698;6.314;2024-02-04T13:30:25;9.80;99.90
57829;DHT22;43657;52.698;6.314;2024-02-04T13:32:52;9.80;99.90
57829;DHT22;43657;52.698;6.314;2024-02-04T13:35:18;9.80;99.90
57829;DHT22;43657;52.698;6.314;2024-02-04T13:37:46;9.80;99.90
57829;DHT22;43657;52.698;6.314;2024-02-04T13:40:21;9.80;99.90
57829;DHT22;43657;52.698;6.314;2024-02-04T13:42:47;9.90;99.90
57829;DHT22;43657;52.698;6.314;2024-02-04T13:45:13;9.80;99.90
57829;DHT22;43657;52.698;6.314;2024-02-04T13:47:39;9.90;99.90
57829;DHT22;43657;52.698;6.314;2024-02-04T13:50:06;9.90;99.90
57829;DHT22;43657;52.698;6.314;2024-02-04T13:52:35;9.80;99.90
57829;DHT22;43657;52.698;6.314;2024-02-04T13:55:01;9.90;99.90
57829;DHT22;43657;52.698;6.314;2024-02-04T13:57:27;9.80;99.90
57829;DHT22;43657;52.698;6.314;2024-02-04T13:59:52;9.80;99.90
57829;DHT22;43657;52.698;6.314;2024-02-04T14:02:18;9.90;99.90
57829;DHT22;43657;52.698;6.314;2024-02-04T14:04:44;9.80;99.90
57829;DHT22;43657;52.698;6.314;2024-02-04T14:07:10;9.80;99.90
57829;DHT22;43657;52.698;6.314;2024-02-04T14:09:35;9.80;99.90
57829;DHT22;43657;52.698;6.314;2024-02-04T14:12:05;9.70;99.90
57829;DHT22;43657;52.698;6.314;2024-02-04T14:14:30;9.70;99.90
57829;DHT22;43657;52.698;6.314;2024-02-04T14:16:57;9.70;99.90
57829;DHT22;43657;52.698;6.314;2024-02-04T14:19:22;9.70;99.90
57829;DHT22;43657;52.698;6.314;2024-02-04T14:21:48;9.60;99.90
57829;DHT22;43657;52.698;6.314;2024-02-04T14:24:14;9.50;99.90
57829;DHT22;43657;52.698;6.314;2024-02-04T14:26:40;9.50;99.90
57829;DHT22;43657;52.698;6.314;2024-02-04T14:29:06;9.40;99.90
57829;DHT22;43657;52.698;6.314;2024-02-04T14:31:33;9.50;99.90
57829;DHT22;43657;52.698;6.314;2024-02-04T14:33:58;9.40;99.90
57829;DHT22;43657;52.698;6.314;2024-02-04T14:36:24;9.30;99.90
57829;DHT22;43657;52.698;6.314;2024-02-04T14:38:50;9.30;99.90
57829;DHT22;43657;52.698;6.314;2024-02-04T14:41:16;9.20;99.90
57829;DHT22;43657;52.698;6.314;2024-02-04T14:43:42;9.10;99.90
57829;DHT22;43657;52.698;6.314;2024-02-04T14:46:08;9.10;99.90
57829;DHT22;43657;52.698;6.314;2024-02-04T14:48:36;9.00;99.90
57829;DHT22;43657;52.698;6.314;2024-02-04T14:51:09;9.00;99.90
57829;DHT22;43657;52.698;6.314;2024-02-04T14:53:44;9.00;99.90
57829;DHT22;43657;52.698;6.314;2024-02-04T14:56:10;9.10;99.90
57829;DHT22;43657;52.698;6.314;2024-02-04T14:58:36;9.00;99.90
57829;DHT22;43657;52.698;6.314;2024-02-04T15:01:02;9.10;99.90
57829;DHT22;43657;52.698;6.314;2024-02-04T15:03:28;9.10;99.90
57829;DHT22;43657;52.698;6.314;2024-02-04T15:05:53;9.00;99.90
57829;DHT22;43657;52.698;6.314;2024-02-04T15:08:19;9.10;99.90
57829;DHT22;43657;52.698;6.314;2024-02-04T15:10:46;9.10;99.90
57829;DHT22;43657;52.698;6.314;2024-02-04T15:13:12;9.10;99.90
57829;DHT22;43657;52.698;6.314;2024-02-04T15:15:38;9.10;99.90
57829;DHT22;43657;52.698;6.314;2024-02-04T15:18:04;9.10;99.90
57829;DHT22;43657;52.698;6.314;2024-02-04T15:20:30;9.10;99.90
57829;DHT22;43657;52.698;6.314;2024-02-04T15:22:57;9.10;99.90
57829;DHT22;43657;52.698;6.314;2024-02-04T15:25:25;9.20;99.90
57829;DHT22;43657;52.698;6.314;2024-02-04T15:27:52;9.10;99.90
57829;DHT22;43657;52.698;6.314;2024-02-04T15:30:20;9.10;99.90
57829;DHT22;43657;52.698;6.314;2024-02-04T15:32:46;9.10;99.90
57829;DHT22;43657;52.698;6.314;2024-02-04T15:35:12;9.20;99.90
57829;DHT22;43657;52.698;6.314;2024-02-04T15:37:38;9.20;99.90
57829;DHT22;43657;52.698;6.314;2024-02-04T15:40:04;9.20;99.90
57829;DHT22;43657;52.698;6.314;2024-02-04T15:42:30;9.10;99.90
57829;DHT22;43657;52.698;6.314;2024-02-04T15:44:56;9.10;99.90
57829;DHT22;43657;52.698;6.314;2024-02-04T15:47:23;9.20;99.90
57829;DHT22;43657;52.698;6.314;2024-02-04T15:49:49;9.20;99.90
57829;DHT22;43657;52.698;6.314;2024-02-04T15:52:15;9.20;99.90
57829;DHT22;43657;52.698;6.314;2024-02-04T15:54:41;9.20;99.90
57829;DHT22;43657;52.698;6.314;2024-02-04T15:57:09;9.30;99.90
57829;DHT22;43657;52.698;6.314;2024-02-04T15:59:51;9.20;99.90
57829;DHT22;43657;52.698;6.314;2024-02-04T16:02:18;9.20;99.90
57829;DHT22;43657;52.698;6.314;2024-02-04T16:04:45;9.20;99.90
57829;DHT22;43657;52.698;6.314;2024-02-04T16:07:12;9.20;99.90
57829;DHT22;43657;52.698;6.314;2024-02-04T16:09:41;9.30;99.90
57829;DHT22;43657;52.698;6.314;2024-02-04T16:12:14;9.20;99.90
57829;DHT22;43657;52.698;6.314;2024-02-04T16:14:44;9.30;99.90
57829;DHT22;43657;52.698;6.314;2024-02-04T16:17:19;9.30;99.90
57829;DHT22;43657;52.698;6.314;2024-02-04T16:19:46;9.30;99.90
57829;DHT22;43657;52.698;6.314;2024-02-04T16:22:13;9.30;99.90
57829;DHT22;43657;52.698;6.314;2024-02-04T16:24:44;9.30;99.90